sensor_id;sensor_type;location;lat;lon;timestamp;pressure;altitude;pressure_sealevel;temperature
24160;BMP280;62385;41.594;23.808;2022-09-12T00:01:59;95129.47;;;16.62
24160;BMP280;62385;41.594;23.808;2022-09-12T00:04:25;95131.16;;;16.57
24160;BMP280;62385;41.594;23.808;2022-09-12T00:06:52;95126.03;;;16.32
24160;BMP280;62385;41.594;23.808;2022-09-12T00:09:18;95127.31;;;16.41
24160;BMP280;62385;41.594;23.808;2022-09-12T00:11:45;95128.25;;;16.36
24160;BMP280;62385;41.594;23.808;2022-09-12T00:14:13;95124.06;;;16.33
24160;BMP280;62385;41.594;23.808;2022-09-12T00:16:41;95121.44;;;16.43
24160;BMP280;62385;41.594;23.808;2022-09-12T00:19:08;95130.25;;;16.35
24160;BMP280;62385;41.594;23.808;2022-09-12T00:21:36;95126.69;;;16.23
24160;BMP280;62385;41.594;23.808;2022-09-12T00:24:02;95120.56;;;16.03
24160;BMP280;62385;41.594;23.808;2022-09-12T00:26:27;95124.66;;;16.04
24160;BMP280;62385;41.594;23.808;2022-09-12T00:28:53;95114.34;;;16.28
24160;BMP280;62385;41.594;23.808;2022-09-12T00:31:21;95115.19;;;16.21
24160;BMP280;62385;41.594;23.808;2022-09-12T00:33:48;95111.06;;;16.10
24160;BMP280;62385;41.594;23.808;2022-09-12T00:36:16;95110.25;;;16.17
24160;BMP280;62385;41.594;23.808;2022-09-12T00:38:44;95113.19;;;16.11
24160;BMP280;62385;41.594;23.808;2022-09-12T00:41:31;95102.63;;;16.13
24160;BMP280;62385;41.594;23.808;2022-09-12T00:46:52;95109.03;;;16.28
24160;BMP280;62385;41.594;23.808;2022-09-12T00:49:30;95109.41;;;16.24
24160;BMP280;62385;41.594;23.808;2022-09-12T00:52:24;95098.72;;;15.87
24160;BMP280;62385;41.594;23.808;2022-09-12T00:54:57;95110.75;;;15.79
24160;BMP280;62385;41.594;23.808;2022-09-12T00:57:28;95107.25;;;15.76
24160;BMP280;62385;41.594;23.808;2022-09-12T01:00:00;95101.38;;;15.78
24160;BMP280;62385;41.594;23.808;2022-09-12T01:02:28;95106.09;;;15.69
24160;BMP280;62385;41.594;23.808;2022-09-12T01:04:54;95101.59;;;15.72
24160;BMP280;62385;41.594;23.808;2022-09-12T01:07:20;95107.66;;;15.72
24160;BMP280;62385;41.594;23.808;2022-09-12T01:09:46;95102.56;;;15.67
24160;BMP280;62385;41.594;23.808;2022-09-12T01:12:15;95101.38;;;15.78
24160;BMP280;62385;41.594;23.808;2022-09-12T01:14:41;95100.91;;;15.71
24160;BMP280;62385;41.594;23.808;2022-09-12T01:17:11;95092.16;;;15.61
24160;BMP280;62385;41.594;23.808;2022-09-12T01:35:25;95100.13;;;15.61
24160;BMP280;62385;41.594;23.808;2022-09-12T01:48:22;95113.69;;;15.73
24160;BMP280;62385;41.594;23.808;2022-09-12T01:51:22;95107.56;;;15.63
24160;BMP280;62385;41.594;23.808;2022-09-12T01:53:59;95104.63;;;15.41
24160;BMP280;62385;41.594;23.808;2022-09-12T01:56:32;95100.19;;;15.44
24160;BMP280;62385;41.594;23.808;2022-09-12T01:59:08;95096.00;;;15.50
24160;BMP280;62385;41.594;23.808;2022-09-12T02:01:43;95098.28;;;15.54
24160;BMP280;62385;41.594;23.808;2022-09-12T02:04:30;95089.44;;;15.79
24160;BMP280;62385;41.594;23.808;2022-09-12T02:07:01;95105.03;;;15.82
24160;BMP280;62385;41.594;23.808;2022-09-12T02:09:35;95101.09;;;15.56
24160;BMP280;62385;41.594;23.808;2022-09-12T02:12:05;95106.91;;;15.62
24160;BMP280;62385;41.594;23.808;2022-09-12T02:14:37;95102.97;;;15.63
24160;BMP280;62385;41.594;23.808;2022-09-12T02:17:08;95105.16;;;15.57
24160;BMP280;62385;41.594;23.808;2022-09-12T02:19:41;95105.31;;;15.59
24160;BMP280;62385;41.594;23.808;2022-09-12T02:22:11;95098.91;;;15.62
24160;BMP280;62385;41.594;23.808;2022-09-12T02:24:59;95104.63;;;15.24
24160;BMP280;62385;41.594;23.808;2022-09-12T02:27:35;95105.66;;;15.28
24160;BMP280;62385;41.594;23.808;2022-09-12T02:30:04;95099.19;;;15.22
24160;BMP280;62385;41.594;23.808;2022-09-12T02:32:35;95101.72;;;14.95
24160;BMP280;62385;41.594;23.808;2022-09-12T02:35:28;95109.03;;;15.11
24160;BMP280;62385;41.594;23.808;2022-09-12T02:38:08;95098.28;;;15.37
24160;BMP280;62385;41.594;23.808;2022-09-12T02:40:35;95091.78;;;15.30
24160;BMP280;62385;41.594;23.808;2022-09-12T02:43:02;95092.50;;;15.13
24160;BMP280;62385;41.594;23.808;2022-09-12T02:45:29;95095.47;;;15.00
24160;BMP280;62385;41.594;23.808;2022-09-12T02:48:05;95091.25;;;14.97
24160;BMP280;62385;41.594;23.808;2022-09-12T02:50:32;95098.22;;;15.27
24160;BMP280;62385;41.594;23.808;2022-09-12T02:52:58;95097.03;;;15.38
24160;BMP280;62385;41.594;23.808;2022-09-12T02:55:30;95097.81;;;15.48
24160;BMP280;62385;41.594;23.808;2022-09-12T02:57:56;95095.06;;;15.56
24160;BMP280;62385;41.594;23.808;2022-09-12T03:00:48;95095.81;;;15.39
24160;BMP280;62385;41.594;23.808;2022-09-12T03:05:59;95090.84;;;15.35
24160;BMP280;62385;41.594;23.808;2022-09-12T03:11:32;95095.00;;;15.28
24160;BMP280;62385;41.594;23.808;2022-09-12T03:16:55;95110.31;;;15.28
24160;BMP280;62385;41.594;23.808;2022-09-12T03:19:32;95115.94;;;15.15
24160;BMP280;62385;41.594;23.808;2022-09-12T03:22:26;95118.72;;;14.99
24160;BMP280;62385;41.594;23.808;2022-09-12T03:25:15;95120.38;;;14.95
24160;BMP280;62385;41.594;23.808;2022-09-12T03:28:01;95115.94;;;14.97
24160;BMP280;62385;41.594;23.808;2022-09-12T03:30:39;95109.97;;;14.89
24160;BMP280;62385;41.594;23.808;2022-09-12T03:33:05;95109.00;;;14.77
24160;BMP280;62385;41.594;23.808;2022-09-12T03:35:31;95112.31;;;14.85
24160;BMP280;62385;41.594;23.808;2022-09-12T03:37:56;95105.47;;;14.74
24160;BMP280;62385;41.594;23.808;2022-09-12T03:40:22;95106.19;;;14.75
24160;BMP280;62385;41.594;23.808;2022-09-12T03:42:47;95108.19;;;14.66
24160;BMP280;62385;41.594;23.808;2022-09-12T03:45:13;95116.41;;;14.86
24160;BMP280;62385;41.594;23.808;2022-09-12T03:47:39;95117.94;;;14.89
24160;BMP280;62385;41.594;23.808;2022-09-12T03:50:05;95130.25;;;14.84
24160;BMP280;62385;41.594;23.808;2022-09-12T03:52:31;95117.25;;;14.63
24160;BMP280;62385;41.594;23.808;2022-09-12T03:54:56;95123.13;;;14.62
24160;BMP280;62385;41.594;23.808;2022-09-12T03:57:22;95120.81;;;14.66
24160;BMP280;62385;41.594;23.808;2022-09-12T03:59:48;95129.13;;;14.45
24160;BMP280;62385;41.594;23.808;2022-09-12T04:02:15;95129.50;;;14.66
24160;BMP280;62385;41.594;23.808;2022-09-12T04:04:41;95135.47;;;14.75
24160;BMP280;62385;41.594;23.808;2022-09-12T04:07:14;95129.84;;;14.88
24160;BMP280;62385;41.594;23.808;2022-09-12T04:09:40;95127.72;;;14.69
24160;BMP280;62385;41.594;23.808;2022-09-12T04:12:06;95131.78;;;14.70
24160;BMP280;62385;41.594;23.808;2022-09-12T04:14:32;95134.72;;;14.57
24160;BMP280;62385;41.594;23.808;2022-09-12T04:16:58;95139.84;;;14.62
24160;BMP280;62385;41.594;23.808;2022-09-12T04:19:25;95141.13;;;14.54
24160;BMP280;62385;41.594;23.808;2022-09-12T04:21:52;95138.28;;;14.51
24160;BMP280;62385;41.594;23.808;2022-09-12T04:24:17;95146.97;;;14.52
24160;BMP280;62385;41.594;23.808;2022-09-12T04:26:43;95153.34;;;14.57
24160;BMP280;62385;41.594;23.808;2022-09-12T04:29:12;95145.09;;;14.45
24160;BMP280;62385;41.594;23.808;2022-09-12T04:31:40;95161.53;;;14.51
24160;BMP280;62385;41.594;23.808;2022-09-12T04:34:06;95158.22;;;14.68
24160;BMP280;62385;41.594;23.808;2022-09-12T04:36:32;95180.91;;;14.94
24160;BMP280;62385;41.594;23.808;2022-09-12T04:38:59;95177.84;;;14.80
24160;BMP280;62385;41.594;23.808;2022-09-12T04:41:29;95181.13;;;14.88
24160;BMP280;62385;41.594;23.808;2022-09-12T04:44:01;95183.34;;;15.00
24160;BMP280;62385;41.594;23.808;2022-09-12T04:46:33;95181.50;;;15.10
24160;BMP280;62385;41.594;23.808;2022-09-12T04:48:59;95185.00;;;14.95
24160;BMP280;62385;41.594;23.808;2022-09-12T04:51:27;95187.06;;;15.04
24160;BMP280;62385;41.594;23.808;2022-09-12T04:53:56;95188.22;;;15.11
24160;BMP280;62385;41.594;23.808;2022-09-12T04:56:22;95186.44;;;15.13
24160;BMP280;62385;41.594;23.808;2022-09-12T04:58:48;95197.88;;;15.24
24160;BMP280;62385;41.594;23.808;2022-09-12T05:01:19;95203.69;;;15.47
24160;BMP280;62385;41.594;23.808;2022-09-12T05:04:04;95209.00;;;15.47
24160;BMP280;62385;41.594;23.808;2022-09-12T05:06:32;95208.66;;;15.51
24160;BMP280;62385;41.594;23.808;2022-09-12T05:08:59;95205.34;;;15.60
24160;BMP280;62385;41.594;23.808;2022-09-12T05:11:29;95207.53;;;15.71
24160;BMP280;62385;41.594;23.808;2022-09-12T05:13:54;95211.84;;;15.67
24160;BMP280;62385;41.594;23.808;2022-09-12T05:16:21;95211.84;;;15.49
24160;BMP280;62385;41.594;23.808;2022-09-12T05:18:47;95216.47;;;15.84
24160;BMP280;62385;41.594;23.808;2022-09-12T05:21:15;95206.44;;;16.02
24160;BMP280;62385;41.594;23.808;2022-09-12T05:23:41;95213.84;;;15.93
24160;BMP280;62385;41.594;23.808;2022-09-12T05:26:07;95210.81;;;16.24
24160;BMP280;62385;41.594;23.808;2022-09-12T05:28:37;95214.75;;;16.23
24160;BMP280;62385;41.594;23.808;2022-09-12T05:33:39;95208.59;;;16.30
24160;BMP280;62385;41.594;23.808;2022-09-12T05:36:27;95214.94;;;16.35
24160;BMP280;62385;41.594;23.808;2022-09-12T05:38:55;95205.06;;;16.28
24160;BMP280;62385;41.594;23.808;2022-09-12T05:41:22;95213.56;;;16.44
24160;BMP280;62385;41.594;23.808;2022-09-12T05:43:53;95211.53;;;16.34
24160;BMP280;62385;41.594;23.808;2022-09-12T05:46:20;95211.63;;;16.44
24160;BMP280;62385;41.594;23.808;2022-09-12T05:48:47;95205.31;;;16.49
24160;BMP280;62385;41.594;23.808;2022-09-12T05:51:19;95211.88;;;16.39
24160;BMP280;62385;41.594;23.808;2022-09-12T05:53:48;95207.84;;;16.47
24160;BMP280;62385;41.594;23.808;2022-09-12T05:56:19;95214.63;;;16.58
24160;BMP280;62385;41.594;23.808;2022-09-12T05:58:47;95214.78;;;16.60
24160;BMP280;62385;41.594;23.808;2022-09-12T06:01:15;95218.00;;;16.68
24160;BMP280;62385;41.594;23.808;2022-09-12T06:06:09;95215.66;;;16.72
24160;BMP280;62385;41.594;23.808;2022-09-12T06:08:39;95219.22;;;16.85
24160;BMP280;62385;41.594;23.808;2022-09-12T06:11:06;95221.22;;;17.04
24160;BMP280;62385;41.594;23.808;2022-09-12T06:13:51;95212.50;;;17.03
24160;BMP280;62385;41.594;23.808;2022-09-12T06:16:19;95220.66;;;17.05
24160;BMP280;62385;41.594;23.808;2022-09-12T06:19:00;95210.53;;;17.13
24160;BMP280;62385;41.594;23.808;2022-09-12T06:21:27;95211.41;;;17.16
24160;BMP280;62385;41.594;23.808;2022-09-12T06:23:54;95206.22;;;17.47
24160;BMP280;62385;41.594;23.808;2022-09-12T06:26:19;95198.72;;;17.55
24160;BMP280;62385;41.594;23.808;2022-09-12T06:28:51;95201.28;;;17.63
24160;BMP280;62385;41.594;23.808;2022-09-12T06:31:19;95196.50;;;17.71
24160;BMP280;62385;41.594;23.808;2022-09-12T06:33:47;95193.09;;;17.71
24160;BMP280;62385;41.594;23.808;2022-09-12T06:36:16;95194.91;;;17.88
24160;BMP280;62385;41.594;23.808;2022-09-12T06:38:43;95188.09;;;18.06
24160;BMP280;62385;41.594;23.808;2022-09-12T06:41:11;95189.50;;;18.17
24160;BMP280;62385;41.594;23.808;2022-09-12T06:43:38;95195.84;;;18.12
24160;BMP280;62385;41.594;23.808;2022-09-12T06:46:05;95192.78;;;17.96
24160;BMP280;62385;41.594;23.808;2022-09-12T06:48:32;95196.69;;;18.45
24160;BMP280;62385;41.594;23.808;2022-09-12T06:51:04;95197.19;;;18.32
24160;BMP280;62385;41.594;23.808;2022-09-12T06:53:33;95195.53;;;18.27
24160;BMP280;62385;41.594;23.808;2022-09-12T06:56:00;95190.63;;;18.14
24160;BMP280;62385;41.594;23.808;2022-09-12T06:58:28;95196.66;;;18.24
24160;BMP280;62385;41.594;23.808;2022-09-12T07:03:27;95194.56;;;18.54
24160;BMP280;62385;41.594;23.808;2022-09-12T07:05:53;95194.84;;;18.48
24160;BMP280;62385;41.594;23.808;2022-09-12T07:08:18;95192.94;;;18.70
24160;BMP280;62385;41.594;23.808;2022-09-12T07:10:44;95191.81;;;18.63
24160;BMP280;62385;41.594;23.808;2022-09-12T07:13:09;95195.19;;;18.64
24160;BMP280;62385;41.594;23.808;2022-09-12T07:15:35;95199.00;;;18.92
24160;BMP280;62385;41.594;23.808;2022-09-12T07:18:01;95199.81;;;18.95
24160;BMP280;62385;41.594;23.808;2022-09-12T07:20:27;95198.41;;;18.94
24160;BMP280;62385;41.594;23.808;2022-09-12T07:22:53;95198.63;;;18.86
24160;BMP280;62385;41.594;23.808;2022-09-12T07:25:19;95195.16;;;18.95
24160;BMP280;62385;41.594;23.808;2022-09-12T07:27:44;95195.09;;;19.05
24160;BMP280;62385;41.594;23.808;2022-09-12T07:30:10;95199.19;;;19.06
24160;BMP280;62385;41.594;23.808;2022-09-12T07:32:36;95197.69;;;19.36
24160;BMP280;62385;41.594;23.808;2022-09-12T07:35:01;95197.50;;;19.22
24160;BMP280;62385;41.594;23.808;2022-09-12T07:37:29;95196.88;;;19.12
24160;BMP280;62385;41.594;23.808;2022-09-12T07:39:56;95194.34;;;19.14
24160;BMP280;62385;41.594;23.808;2022-09-12T07:42:22;95190.50;;;19.39
24160;BMP280;62385;41.594;23.808;2022-09-12T07:44:47;95187.66;;;19.37
24160;BMP280;62385;41.594;23.808;2022-09-12T07:47:31;95191.28;;;19.41
24160;BMP280;62385;41.594;23.808;2022-09-12T07:49:57;95193.09;;;19.60
24160;BMP280;62385;41.594;23.808;2022-09-12T07:52:23;95182.47;;;19.50
24160;BMP280;62385;41.594;23.808;2022-09-12T07:54:48;95185.28;;;19.53
24160;BMP280;62385;41.594;23.808;2022-09-12T07:57:14;95189.34;;;19.42
24160;BMP280;62385;41.594;23.808;2022-09-12T07:59:41;95188.78;;;19.55
24160;BMP280;62385;41.594;23.808;2022-09-12T08:02:11;95176.31;;;19.60
24160;BMP280;62385;41.594;23.808;2022-09-12T08:04:40;95181.50;;;19.79
24160;BMP280;62385;41.594;23.808;2022-09-12T08:07:07;95187.81;;;20.07
24160;BMP280;62385;41.594;23.808;2022-09-12T08:09:33;95188.19;;;20.37
24160;BMP280;62385;41.594;23.808;2022-09-12T08:11:58;95178.38;;;20.30
24160;BMP280;62385;41.594;23.808;2022-09-12T08:14:26;95183.88;;;20.20
24160;BMP280;62385;41.594;23.808;2022-09-12T08:16:51;95176.16;;;20.26
24160;BMP280;62385;41.594;23.808;2022-09-12T08:19:17;95179.91;;;20.09
24160;BMP280;62385;41.594;23.808;2022-09-12T08:21:42;95180.03;;;20.23
24160;BMP280;62385;41.594;23.808;2022-09-12T08:24:10;95181.78;;;20.19
24160;BMP280;62385;41.594;23.808;2022-09-12T08:26:36;95174.06;;;20.25
24160;BMP280;62385;41.594;23.808;2022-09-12T08:29:02;95172.19;;;20.39
24160;BMP280;62385;41.594;23.808;2022-09-12T08:31:28;95177.00;;;20.29
24160;BMP280;62385;41.594;23.808;2022-09-12T08:33:56;95173.78;;;20.56
24160;BMP280;62385;41.594;23.808;2022-09-12T08:36:25;95164.31;;;20.55
24160;BMP280;62385;41.594;23.808;2022-09-12T08:41:48;95163.53;;;20.52
24160;BMP280;62385;41.594;23.808;2022-09-12T08:52:10;95154.00;;;20.75
24160;BMP280;62385;41.594;23.808;2022-09-12T08:54:38;95148.63;;;20.87
24160;BMP280;62385;41.594;23.808;2022-09-12T08:57:08;95148.03;;;21.14
24160;BMP280;62385;41.594;23.808;2022-09-12T08:59:40;95142.13;;;21.29
24160;BMP280;62385;41.594;23.808;2022-09-12T09:04:49;95143.94;;;21.38
24160;BMP280;62385;41.594;23.808;2022-09-12T09:07:45;95157.59;;;21.17
24160;BMP280;62385;41.594;23.808;2022-09-12T09:16:26;95146.75;;;21.40
24160;BMP280;62385;41.594;23.808;2022-09-12T09:18:59;95142.13;;;21.69
24160;BMP280;62385;41.594;23.808;2022-09-12T09:21:43;95139.50;;;21.57
24160;BMP280;62385;41.594;23.808;2022-09-12T09:24:15;95132.56;;;21.65
24160;BMP280;62385;41.594;23.808;2022-09-12T09:29:22;95127.41;;;21.44
24160;BMP280;62385;41.594;23.808;2022-09-12T09:31:55;95125.50;;;21.86
24160;BMP280;62385;41.594;23.808;2022-09-12T09:34:41;95118.09;;;22.00
24160;BMP280;62385;41.594;23.808;2022-09-12T09:37:28;95120.34;;;22.04
24160;BMP280;62385;41.594;23.808;2022-09-12T09:45:20;95115.81;;;22.08
24160;BMP280;62385;41.594;23.808;2022-09-12T09:50:35;95113.19;;;22.52
24160;BMP280;62385;41.594;23.808;2022-09-12T09:53:01;95114.56;;;22.83
24160;BMP280;62385;41.594;23.808;2022-09-12T09:55:33;95112.72;;;22.71
24160;BMP280;62385;41.594;23.808;2022-09-12T09:58:03;95108.91;;;22.77
24160;BMP280;62385;41.594;23.808;2022-09-12T10:00:36;95111.91;;;22.69
24160;BMP280;62385;41.594;23.808;2022-09-12T10:05:51;95112.59;;;22.54
24160;BMP280;62385;41.594;23.808;2022-09-12T10:08:23;95121.00;;;22.76
24160;BMP280;62385;41.594;23.808;2022-09-12T10:16:03;95098.47;;;23.30
24160;BMP280;62385;41.594;23.808;2022-09-12T10:18:40;95107.31;;;23.17
24160;BMP280;62385;41.594;23.808;2022-09-12T10:24:00;95085.69;;;23.47
24160;BMP280;62385;41.594;23.808;2022-09-12T10:26:37;95093.41;;;23.70
24160;BMP280;62385;41.594;23.808;2022-09-12T10:29:16;95085.34;;;23.38
24160;BMP280;62385;41.594;23.808;2022-09-12T10:31:47;95087.06;;;23.64
24160;BMP280;62385;41.594;23.808;2022-09-12T10:34:34;95087.78;;;23.48
24160;BMP280;62385;41.594;23.808;2022-09-12T10:37:06;95085.94;;;23.37
24160;BMP280;62385;41.594;23.808;2022-09-12T10:39:34;95093.53;;;23.56
24160;BMP280;62385;41.594;23.808;2022-09-12T10:42:02;95077.84;;;23.37
24160;BMP280;62385;41.594;23.808;2022-09-12T10:44:32;95080.94;;;23.79
24160;BMP280;62385;41.594;23.808;2022-09-12T10:47:00;95075.94;;;23.89
24160;BMP280;62385;41.594;23.808;2022-09-12T10:49:42;95072.72;;;23.43
24160;BMP280;62385;41.594;23.808;2022-09-12T10:52:23;95074.97;;;23.49
24160;BMP280;62385;41.594;23.808;2022-09-12T10:54:50;95077.84;;;23.69
24160;BMP280;62385;41.594;23.808;2022-09-12T11:00:19;95078.97;;;24.13
24160;BMP280;62385;41.594;23.808;2022-09-12T11:05:55;95074.25;;;23.80
24160;BMP280;62385;41.594;23.808;2022-09-12T11:16:48;95065.50;;;24.33
24160;BMP280;62385;41.594;23.808;2022-09-12T11:24:54;95068.19;;;23.97
24160;BMP280;62385;41.594;23.808;2022-09-12T11:27:45;95054.72;;;24.51
24160;BMP280;62385;41.594;23.808;2022-09-12T11:30:16;95050.03;;;24.00
24160;BMP280;62385;41.594;23.808;2022-09-12T11:41:35;95050.44;;;24.82
24160;BMP280;62385;41.594;23.808;2022-09-12T11:46:44;95046.69;;;24.71
24160;BMP280;62385;41.594;23.808;2022-09-12T11:54:15;95056.59;;;24.46
24160;BMP280;62385;41.594;23.808;2022-09-12T11:56:46;95046.78;;;24.55
24160;BMP280;62385;41.594;23.808;2022-09-12T11:59:30;95054.69;;;24.69
24160;BMP280;62385;41.594;23.808;2022-09-12T12:02:00;95040.75;;;24.39
24160;BMP280;62385;41.594;23.808;2022-09-12T12:04:43;95038.63;;;24.73
24160;BMP280;62385;41.594;23.808;2022-09-12T12:07:11;95042.44;;;24.66
24160;BMP280;62385;41.594;23.808;2022-09-12T12:09:57;95039.25;;;25.09
24160;BMP280;62385;41.594;23.808;2022-09-12T12:12:25;95043.66;;;25.01
24160;BMP280;62385;41.594;23.808;2022-09-12T12:14:53;95038.59;;;24.91
24160;BMP280;62385;41.594;23.808;2022-09-12T12:17:24;95032.19;;;24.82
24160;BMP280;62385;41.594;23.808;2022-09-12T12:19:59;95036.09;;;24.97
24160;BMP280;62385;41.594;23.808;2022-09-12T12:22:26;95049.94;;;24.67
24160;BMP280;62385;41.594;23.808;2022-09-12T12:27:58;95039.91;;;24.52
24160;BMP280;62385;41.594;23.808;2022-09-12T12:38:02;95044.13;;;24.39
24160;BMP280;62385;41.594;23.808;2022-09-12T12:40:29;95040.66;;;24.55
24160;BMP280;62385;41.594;23.808;2022-09-12T12:42:56;95040.75;;;25.14
24160;BMP280;62385;41.594;23.808;2022-09-12T12:48:12;95022.41;;;24.73
24160;BMP280;62385;41.594;23.808;2022-09-12T12:53:43;95029.31;;;24.40
24160;BMP280;62385;41.594;23.808;2022-09-12T12:59:20;95024.91;;;24.31
24160;BMP280;62385;41.594;23.808;2022-09-12T13:01:53;95029.16;;;24.18
24160;BMP280;62385;41.594;23.808;2022-09-12T13:04:24;95027.03;;;24.70
24160;BMP280;62385;41.594;23.808;2022-09-12T13:07:05;95023.63;;;25.28
24160;BMP280;62385;41.594;23.808;2022-09-12T13:12:07;95029.53;;;25.22
24160;BMP280;62385;41.594;23.808;2022-09-12T13:17:33;95026.97;;;25.06
24160;BMP280;62385;41.594;23.808;2022-09-12T13:22:44;95032.66;;;24.77
24160;BMP280;62385;41.594;23.808;2022-09-12T13:25:33;95027.16;;;24.92
24160;BMP280;62385;41.594;23.808;2022-09-12T13:30:42;95037.59;;;24.82
24160;BMP280;62385;41.594;23.808;2022-09-12T13:38:36;95023.81;;;24.94
24160;BMP280;62385;41.594;23.808;2022-09-12T13:41:19;95025.03;;;24.71
24160;BMP280;62385;41.594;23.808;2022-09-12T13:43:48;95032.59;;;24.92
24160;BMP280;62385;41.594;23.808;2022-09-12T13:46:18;95027.50;;;24.65
24160;BMP280;62385;41.594;23.808;2022-09-12T13:48:46;95023.06;;;24.91
24160;BMP280;62385;41.594;23.808;2022-09-12T13:51:24;95030.16;;;24.83
24160;BMP280;62385;41.594;23.808;2022-09-12T13:53:55;95029.66;;;25.26
24160;BMP280;62385;41.594;23.808;2022-09-12T13:56:22;95034.09;;;24.60
24160;BMP280;62385;41.594;23.808;2022-09-12T13:58:53;95025.09;;;25.11
24160;BMP280;62385;41.594;23.808;2022-09-12T14:01:37;95027.13;;;24.55
24160;BMP280;62385;41.594;23.808;2022-09-12T14:04:14;95027.47;;;24.45
24160;BMP280;62385;41.594;23.808;2022-09-12T14:07:01;95039.75;;;24.86
24160;BMP280;62385;41.594;23.808;2022-09-12T14:09:31;95027.22;;;25.14
24160;BMP280;62385;41.594;23.808;2022-09-12T14:11:59;95028.53;;;24.38
24160;BMP280;62385;41.594;23.808;2022-09-12T14:14:32;95038.28;;;24.45
24160;BMP280;62385;41.594;23.808;2022-09-12T14:16:59;95030.41;;;23.81
24160;BMP280;62385;41.594;23.808;2022-09-12T14:19:25;95040.78;;;23.87
24160;BMP280;62385;41.594;23.808;2022-09-12T14:21:52;95041.19;;;24.33
24160;BMP280;62385;41.594;23.808;2022-09-12T14:24:19;95043.53;;;24.23
24160;BMP280;62385;41.594;23.808;2022-09-12T14:26:51;95040.59;;;24.53
24160;BMP280;62385;41.594;23.808;2022-09-12T14:29:19;95036.72;;;24.04
24160;BMP280;62385;41.594;23.808;2022-09-12T14:31:46;95027.09;;;23.83
24160;BMP280;62385;41.594;23.808;2022-09-12T14:34:16;95027.91;;;23.70
24160;BMP280;62385;41.594;23.808;2022-09-12T14:36:50;95034.47;;;23.65
24160;BMP280;62385;41.594;23.808;2022-09-12T14:41:46;95047.28;;;23.64
24160;BMP280;62385;41.594;23.808;2022-09-12T14:44:21;95048.41;;;23.59
24160;BMP280;62385;41.594;23.808;2022-09-12T14:47:19;95048.16;;;23.37
24160;BMP280;62385;41.594;23.808;2022-09-12T14:49:47;95054.06;;;23.49
24160;BMP280;62385;41.594;23.808;2022-09-12T14:55:00;95049.91;;;23.46
24160;BMP280;62385;41.594;23.808;2022-09-12T14:57:30;95053.97;;;23.47
24160;BMP280;62385;41.594;23.808;2022-09-12T15:02:40;95046.16;;;23.53
24160;BMP280;62385;41.594;23.808;2022-09-12T15:10:25;95053.50;;;23.19
24160;BMP280;62385;41.594;23.808;2022-09-12T15:15:38;95045.13;;;22.97
24160;BMP280;62385;41.594;23.808;2022-09-12T15:18:04;95045.28;;;22.85
24160;BMP280;62385;41.594;23.808;2022-09-12T15:20:31;95046.56;;;22.84
24160;BMP280;62385;41.594;23.808;2022-09-12T15:22:57;95052.03;;;22.70
24160;BMP280;62385;41.594;23.808;2022-09-12T15:25:23;95054.03;;;22.70
24160;BMP280;62385;41.594;23.808;2022-09-12T15:27:52;95056.34;;;22.62
24160;BMP280;62385;41.594;23.808;2022-09-12T15:30:18;95054.69;;;22.55
24160;BMP280;62385;41.594;23.808;2022-09-12T15:32:43;95063.81;;;22.47
24160;BMP280;62385;41.594;23.808;2022-09-12T15:35:19;95076.38;;;22.43
24160;BMP280;62385;41.594;23.808;2022-09-12T15:37:46;95052.34;;;22.33
24160;BMP280;62385;41.594;23.808;2022-09-12T15:40:12;95059.81;;;22.35
24160;BMP280;62385;41.594;23.808;2022-09-12T15:42:40;95061.56;;;22.44
24160;BMP280;62385;41.594;23.808;2022-09-12T15:45:16;95071.31;;;22.35
24160;BMP280;62385;41.594;23.808;2022-09-12T15:47:43;95061.88;;;22.50
24160;BMP280;62385;41.594;23.808;2022-09-12T15:50:09;95064.78;;;23.00
24160;BMP280;62385;41.594;23.808;2022-09-12T15:52:35;95066.22;;;22.71
24160;BMP280;62385;41.594;23.808;2022-09-12T15:55:01;95062.47;;;22.48
24160;BMP280;62385;41.594;23.808;2022-09-12T15:57:29;95069.31;;;22.36
24160;BMP280;62385;41.594;23.808;2022-09-12T15:59:54;95075.50;;;22.24
24160;BMP280;62385;41.594;23.808;2022-09-12T16:02:20;95075.31;;;22.20
24160;BMP280;62385;41.594;23.808;2022-09-12T16:04:45;95072.47;;;22.02
24160;BMP280;62385;41.594;23.808;2022-09-12T16:07:12;95077.34;;;22.06
24160;BMP280;62385;41.594;23.808;2022-09-12T16:09:38;95074.56;;;22.04
24160;BMP280;62385;41.594;23.808;2022-09-12T16:12:04;95074.44;;;22.02
24160;BMP280;62385;41.594;23.808;2022-09-12T16:14:30;95080.03;;;21.78
24160;BMP280;62385;41.594;23.808;2022-09-12T16:16:56;95086.91;;;21.81
24160;BMP280;62385;41.594;23.808;2022-09-12T16:19:21;95086.09;;;21.65
24160;BMP280;62385;41.594;23.808;2022-09-12T16:21:47;95085.59;;;21.55
24160;BMP280;62385;41.594;23.808;2022-09-12T16:24:12;95096.16;;;21.51
24160;BMP280;62385;41.594;23.808;2022-09-12T16:26:38;95092.56;;;21.46
24160;BMP280;62385;41.594;23.808;2022-09-12T16:29:03;95093.41;;;21.37
24160;BMP280;62385;41.594;23.808;2022-09-12T16:31:29;95105.25;;;21.32
24160;BMP280;62385;41.594;23.808;2022-09-12T16:33:55;95107.25;;;21.31
24160;BMP280;62385;41.594;23.808;2022-09-12T16:36:39;95107.88;;;21.30
24160;BMP280;62385;41.594;23.808;2022-09-12T16:39:05;95111.78;;;21.15
24160;BMP280;62385;41.594;23.808;2022-09-12T16:41:32;95097.50;;;20.98
24160;BMP280;62385;41.594;23.808;2022-09-12T16:43:58;95100.66;;;20.95
24160;BMP280;62385;41.594;23.808;2022-09-12T16:46:26;95103.72;;;20.89
24160;BMP280;62385;41.594;23.808;2022-09-12T16:48:55;95109.09;;;20.89
24160;BMP280;62385;41.594;23.808;2022-09-12T16:51:24;95113.78;;;20.89
24160;BMP280;62385;41.594;23.808;2022-09-12T16:54:09;95112.53;;;20.78
24160;BMP280;62385;41.594;23.808;2022-09-12T16:56:35;95120.94;;;20.84
24160;BMP280;62385;41.594;23.808;2022-09-12T16:59:01;95116.41;;;20.75
24160;BMP280;62385;41.594;23.808;2022-09-12T17:01:30;95118.03;;;20.68
24160;BMP280;62385;41.594;23.808;2022-09-12T17:03:57;95127.13;;;20.75
24160;BMP280;62385;41.594;23.808;2022-09-12T17:06:23;95127.41;;;20.67
24160;BMP280;62385;41.594;23.808;2022-09-12T17:08:51;95127.28;;;20.65